Time;durP1;ratioP1;P1;durP2;ratioP2;P2;SDS_P1;SDS_P2;PMS_P1;PMS_P2;Temp;Humidity;BMP_temperature;BMP_pressure;BME280_temperature;BME280_humidity;BME280_pressure;Samples;Min_cycle;Max_cycle;Signal;HPM_P1;HPM_P2
2021/05/21 00:00:57;;;;;;;1.60;0.50;;;14.10;67.00;;;;;;2070720;28;20522;-86
2021/05/21 00:01:58;;;;;;;1.33;0.50;;;14.10;67.00;;;;;;2060581;28;20117;-86
2021/05/21 00:03:01;;;;;;;1.42;0.50;;;14.10;67.00;;;;;;2073063;28;20046;-86
2021/05/21 00:04:02;;;;;;;1.23;0.45;;;14.10;67.00;;;;;;2073466;28;20076;-85
2021/05/21 00:05:03;;;;;;;1.95;0.40;;;14.10;67.10;;;;;;2078183;28;20155;-86
2021/05/21 00:06:04;;;;;;;0.93;0.47;;;14.10;67.10;;;;;;2069275;28;20044;-86
2021/05/21 00:07:04;;;;;;;2.78;0.47;;;14.10;67.10;;;;;;2065149;28;20037;-85
2021/05/21 00:08:09;;;;;;;0.88;0.43;;;14.10;67.20;;;;;;2073123;28;20053;-86
2021/05/21 00:09:10;;;;;;;0.93;0.40;;;14.10;67.20;;;;;;2080545;28;20028;-86
2021/05/21 00:10:11;;;;;;;1.15;0.40;;;14.10;67.20;;;;;;2070554;28;20049;-86
2021/05/21 00:11:11;;;;;;;0.75;0.40;;;14.10;67.20;;;;;;2063596;28;20018;-85
2021/05/21 00:12:12;;;;;;;1.02;0.40;;;14.10;67.30;;;;;;2073528;28;20026;-85
2021/05/21 00:13:13;;;;;;;0.30;0.30;;;14.10;67.90;;;;;;2067540;28;20030;-86
2021/05/21 00:14:13;;;;;;;1.58;0.40;;;14.10;67.30;;;;;;2058538;28;20599;-85
2021/05/21 00:15:15;;;;;;;2.63;0.63;;;14.10;67.30;;;;;;2069733;28;20046;-85
2021/05/21 00:16:16;;;;;;;0.98;0.30;;;14.10;67.30;;;;;;2074782;28;20045;-86
2021/05/21 00:17:17;;;;;;;1.30;0.50;;;14.10;67.40;;;;;;2078896;28;20037;-86
2021/05/21 00:18:18;;;;;;;1.30;0.50;;;14.10;67.40;;;;;;2064189;28;20022;-86
2021/05/21 00:19:19;;;;;;;1.88;0.65;;;14.10;67.40;;;;;;2059990;28;20023;-86
2021/05/21 00:20:20;;;;;;;0.75;0.43;;;14.10;67.40;;;;;;2067970;28;20073;-86
2021/05/21 00:21:21;;;;;;;1.17;0.35;;;14.10;67.50;;;;;;2066819;28;20038;-86
2021/05/21 00:22:22;;;;;;;1.10;0.40;;;14.10;67.50;;;;;;2068637;28;20026;-86
2021/05/21 00:23:22;;;;;;;1.23;0.40;;;14.10;67.60;;;;;;2067718;28;20126;-86
2021/05/21 00:24:23;;;;;;;0.30;0.28;;;14.10;67.60;;;;;;2076248;28;20057;-85
2021/05/21 00:25:24;;;;;;;1.40;0.38;;;14.10;67.60;;;;;;2066761;28;20112;-85
2021/05/21 00:26:24;;;;;;;1.48;0.30;;;14.10;67.60;;;;;;2062877;28;20040;-86
2021/05/21 00:27:25;;;;;;;1.33;0.52;;;14.00;67.60;;;;;;2052014;28;20386;-86
2021/05/21 00:28:25;;;;;;;1.15;0.40;;;14.10;67.60;;;;;;2063531;28;20030;-86
2021/05/21 00:29:26;;;;;;;1.65;0.63;;;14.00;67.60;;;;;;2065140;28;20031;-86
2021/05/21 00:30:27;;;;;;;0.50;0.30;;;14.10;67.60;;;;;;2072397;28;20476;-86
2021/05/21 00:31:27;;;;;;;2.03;0.50;;;14.10;67.70;;;;;;2060064;28;20105;-85
2021/05/21 00:32:28;;;;;;;2.45;0.50;;;14.10;67.70;;;;;;2058797;28;20041;-86
2021/05/21 00:33:29;;;;;;;0.77;0.40;;;14.00;67.60;;;;;;2065958;28;20033;-85
2021/05/21 00:34:29;;;;;;;0.70;0.40;;;14.10;67.70;;;;;;2073778;28;20045;-86
2021/05/21 00:35:30;;;;;;;1.23;0.50;;;14.00;68.30;;;;;;2063500;28;20082;-86
2021/05/21 00:36:30;;;;;;;1.95;0.43;;;14.00;67.70;;;;;;2062588;28;20452;-86
2021/05/21 00:37:31;;;;;;;1.77;0.35;;;14.00;67.80;;;;;;2069224;28;20029;-86
2021/05/21 00:38:32;;;;;;;0.93;0.40;;;14.00;67.80;;;;;;2075309;28;20033;-86
2021/05/21 00:39:34;;;;;;;0.63;0.30;;;14.00;67.80;;;;;;2067875;28;20023;-87
2021/05/21 00:40:35;;;;;;;0.73;0.38;;;14.00;67.80;;;;;;2055837;28;20070;-87
2021/05/21 00:41:36;;;;;;;0.82;0.40;;;14.00;67.80;;;;;;2048908;28;20553;-87
2021/05/21 00:42:37;;;;;;;1.33;0.38;;;14.00;67.90;;;;;;2046523;28;20032;-87
2021/05/21 00:43:37;;;;;;;0.82;0.30;;;14.00;67.90;;;;;;2071983;28;20508;-87
2021/05/21 00:44:38;;;;;;;1.02;0.50;;;14.00;67.90;;;;;;2063388;28;20124;-87
2021/05/21 00:45:39;;;;;;;2.17;0.47;;;14.00;67.90;;;;;;2061126;28;20505;-87
2021/05/21 00:46:40;;;;;;;1.02;0.50;;;14.00;67.90;;;;;;2064749;28;20122;-86
2021/05/21 00:47:42;;;;;;;2.75;0.50;;;14.00;68.00;;;;;;2048923;28;20027;-87
2021/05/21 00:48:42;;;;;;;1.38;0.40;;;14.00;67.90;;;;;;2062945;28;21783;-87
2021/05/21 00:49:43;;;;;;;1.27;0.40;;;14.00;67.90;;;;;;2063856;28;20691;-87
2021/05/21 00:50:44;;;;;;;1.58;0.45;;;14.10;67.90;;;;;;2063300;28;20061;-87
2021/05/21 00:51:46;;;;;;;1.15;0.40;;;14.10;67.90;;;;;;2054087;28;20555;-87
2021/05/21 00:52:47;;;;;;;1.60;0.40;;;14.10;67.90;;;;;;2064421;28;20022;-87
2021/05/21 00:53:50;;;;;;;1.38;0.40;;;14.10;67.90;;;;;;2076322;28;20041;-87
2021/05/21 00:54:51;;;;;;;1.02;0.40;;;14.10;67.90;;;;;;2062136;28;20167;-86
2021/05/21 00:55:52;;;;;;;1.48;0.50;;;14.10;67.90;;;;;;2062513;28;20038;-86
2021/05/21 00:56:53;;;;;;;2.97;0.40;;;14.10;68.00;;;;;;2060900;28;20497;-86
2021/05/21 00:57:53;;;;;;;1.25;0.50;;;14.10;68.00;;;;;;2054599;28;20133;-87
2021/05/21 00:58:57;;;;;;;1.17;0.30;;;14.00;68.00;;;;;;2061915;28;20334;-86
2021/05/21 00:59:57;;;;;;;0.77;0.40;;;14.10;68.00;;;;;;2071747;28;20033;-87
2021/05/21 01:00:58;;;;;;;1.20;0.40;;;14.10;68.10;;;;;;2067498;28;20437;-86
2021/05/21 01:01:59;;;;;;;1.83;0.43;;;14.10;68.10;;;;;;2047295;28;20505;-86
2021/05/21 01:03:00;;;;;;;0.65;0.40;;;14.00;68.00;;;;;;2048236;28;20027;-87
2021/05/21 01:04:00;;;;;;;0.95;0.40;;;14.10;68.10;;;;;;2047801;28;20150;-87
2021/05/21 01:05:01;;;;;;;0.68;0.28;;;14.00;68.10;;;;;;2062531;28;20025;-87
2021/05/21 01:06:02;;;;;;;1.77;0.45;;;14.00;68.10;;;;;;2070405;28;20108;-87
2021/05/21 01:07:04;;;;;;;1.10;0.47;;;14.10;68.20;;;;;;2074833;28;20029;-87
2021/05/21 01:08:05;;;;;;;1.45;0.40;;;14.10;68.20;;;;;;2080035;28;20609;-86
2021/05/21 01:09:05;;;;;;;1.17;0.30;;;14.10;68.20;;;;;;2070407;28;20064;-86
2021/05/21 01:10:06;;;;;;;1.42;0.40;;;14.00;68.10;;;;;;2071485;28;20030;-86
2021/05/21 01:11:09;;;;;;;1.05;0.30;;;14.10;68.20;;;;;;2059497;28;20105;-87
2021/05/21 01:12:09;;;;;;;0.55;0.40;;;14.00;68.20;;;;;;2069852;28;20041;-87
2021/05/21 01:13:10;;;;;;;1.10;0.68;;;14.00;68.30;;;;;;2071929;28;20037;-87
2021/05/21 01:14:11;;;;;;;0.57;0.35;;;14.00;68.30;;;;;;2071914;28;20057;-85
2021/05/21 01:15:12;;;;;;;1.88;0.50;;;14.10;68.40;;;;;;2068166;28;20033;-87
2021/05/21 01:16:13;;;;;;;0.40;0.30;;;14.00;68.30;;;;;;2056663;28;20533;-87
2021/05/21 01:17:14;;;;;;;0.90;0.30;;;14.00;68.30;;;;;;2064818;28;20027;-85
2021/05/21 01:18:15;;;;;;;0.60;0.30;;;14.00;68.40;;;;;;2073946;28;20030;-87
2021/05/21 01:19:15;;;;;;;1.95;0.60;;;14.00;68.30;;;;;;2070904;28;20117;-87
2021/05/21 01:20:16;;;;;;;1.75;0.40;;;14.00;68.30;;;;;;2067080;28;20044;-87
2021/05/21 01:21:17;;;;;;;1.00;0.40;;;14.00;68.40;;;;;;2070896;28;20080;-86
2021/05/21 01:22:18;;;;;;;0.93;0.30;;;14.10;68.40;;;;;;2076435;28;20550;-87
2021/05/21 01:23:19;;;;;;;2.70;0.38;;;14.00;68.30;;;;;;2072889;28;20035;-87
2021/05/21 01:24:20;;;;;;;0.95;0.30;;;14.00;68.30;;;;;;2060937;28;20428;-87
2021/05/21 01:25:21;;;;;;;0.45;0.30;;;14.00;68.30;;;;;;2073437;28;20030;-87
2021/05/21 01:26:22;;;;;;;1.00;0.38;;;14.00;68.30;;;;;;2073713;28;20124;-87
2021/05/21 01:27:23;;;;;;;1.45;0.40;;;14.00;68.30;;;;;;2067351;28;20040;-87
2021/05/21 01:28:24;;;;;;;1.08;0.45;;;14.00;68.30;;;;;;2061774;28;20033;-87
2021/05/21 01:29:27;;;;;;;0.98;0.40;;;14.00;68.30;;;;;;2069288;28;20033;-87
2021/05/21 01:30:28;;;;;;;1.88;0.45;;;14.10;68.40;;;;;;2067413;28;20396;-88
2021/05/21 01:31:29;;;;;;;1.65;0.55;;;14.10;68.40;;;;;;2067463;28;20447;-87
2021/05/21 01:32:30;;;;;;;1.95;0.43;;;14.10;68.40;;;;;;2069045;28;20677;-87
2021/05/21 01:33:31;;;;;;;1.13;0.40;;;14.00;68.30;;;;;;2072165;28;20522;-87
2021/05/21 01:34:34;;;;;;;1.48;0.40;;;14.10;68.40;;;;;;2066043;28;20019;-86
2021/05/21 01:35:35;;;;;;;0.45;0.40;;;14.10;68.40;;;;;;2074307;28;20117;-86
2021/05/21 01:36:36;;;;;;;0.95;0.30;;;14.10;68.40;;;;;;2075066;28;20099;-87
2021/05/21 01:37:42;;;;;;;2.95;0.68;;;14.10;68.40;;;;;;2068130;28;20133;-87
2021/05/21 01:39:07;;;;;;;0.82;0.47;;;14.00;68.30;;;;;;2071701;28;20044;-87
2021/05/21 01:40:08;;;;;;;0.73;0.40;;;14.10;68.30;;;;;;2073697;28;20033;-85
2021/05/21 01:41:09;;;;;;;2.38;0.50;;;14.10;68.30;;;;;;2080400;28;20036;-85
2021/05/21 01:42:11;;;;;;;1.30;0.45;;;14.10;68.30;;;;;;2064165;28;20034;-85
2021/05/21 01:43:13;;;;;;;1.50;0.50;;;14.00;68.30;;;;;;2063167;28;20542;-86
2021/05/21 01:44:17;;;;;;;1.05;0.52;;;14.00;68.30;;;;;;2076909;28;20042;-85
2021/05/21 01:45:17;;;;;;;0.65;0.38;;;14.10;68.40;;;;;;2071658;28;20485;-86
2021/05/21 01:46:20;;;;;;;1.05;0.30;;;14.10;68.30;;;;;;2062712;28;20026;-86
2021/05/21 01:47:21;;;;;;;2.35;0.73;;;14.10;68.90;;;;;;2061817;28;20512;-85
2021/05/21 01:48:21;;;;;;;1.52;0.50;;;14.10;68.30;;;;;;2074953;28;20030;-85
2021/05/21 01:49:22;;;;;;;0.93;0.30;;;14.10;68.30;;;;;;2072357;28;20026;-86
2021/05/21 01:50:23;;;;;;;0.82;0.32;;;14.10;68.30;;;;;;2072508;28;20033;-85
2021/05/21 01:51:23;;;;;;;2.20;0.45;;;14.10;68.30;;;;;;2064452;28;20023;-84
2021/05/21 01:52:24;;;;;;;1.67;0.50;;;14.10;68.30;;;;;;2064237;28;21117;-85
2021/05/21 01:53:25;;;;;;;1.33;0.50;;;14.10;68.50;;;;;;2068632;28;20037;-85
2021/05/21 01:54:29;;;;;;;1.05;0.40;;;14.10;68.50;;;;;;2062216;28;20088;-85
2021/05/21 01:55:29;;;;;;;0.60;0.30;;;14.10;68.60;;;;;;2056157;28;20508;-85
2021/05/21 01:56:30;;;;;;;1.75;0.40;;;14.10;68.80;;;;;;2069985;28;20033;-85
2021/05/21 01:57:32;;;;;;;1.83;0.60;;;14.00;68.80;;;;;;2059705;28;20041;-85
2021/05/21 01:58:33;;;;;;;0.95;0.40;;;14.00;68.90;;;;;;2056278;28;20642;-85
2021/05/21 01:59:34;;;;;;;0.90;0.40;;;14.00;69.00;;;;;;2076949;28;20030;-86
2021/05/21 02:00:34;;;;;;;1.60;0.50;;;14.00;69.00;;;;;;2069932;28;20038;-85
2021/05/21 02:01:35;;;;;;;2.53;0.50;;;13.90;69.10;;;;;;2071697;28;20424;-85
2021/05/21 02:02:37;;;;;;;1.33;0.32;;;14.00;69.20;;;;;;2073492;28;20033;-85
2021/05/21 02:03:37;;;;;;;0.85;0.50;;;14.00;69.30;;;;;;2080689;28;20069;-86
2021/05/21 02:04:40;;;;;;;0.70;0.40;;;13.90;69.40;;;;;;2076594;28;20472;-86
2021/05/21 02:05:41;;;;;;;0.90;0.40;;;13.90;69.50;;;;;;2065270;28;20040;-85
2021/05/21 02:06:41;;;;;;;0.88;0.40;;;13.90;69.60;;;;;;2065592;28;20023;-85
2021/05/21 02:07:42;;;;;;;0.55;0.32;;;13.90;69.70;;;;;;2073522;28;20041;-84
2021/05/21 02:08:43;;;;;;;1.17;0.40;;;13.90;70.00;;;;;;2071748;28;20097;-85
2021/05/21 02:09:54;;;;;;;2.70;0.50;;;13.90;70.30;;;;;;2073437;28;20037;-84
2021/05/21 02:10:55;;;;;;;2.17;0.60;;;13.80;70.60;;;;;;2068333;28;20327;-85
2021/05/21 02:11:56;;;;;;;0.90;0.40;;;13.80;71.10;;;;;;2082231;28;20025;-85
2021/05/21 02:12:56;;;;;;;0.90;0.47;;;13.70;71.50;;;;;;2072845;28;20501;-84
2021/05/21 02:13:57;;;;;;;1.02;0.30;;;13.60;71.80;;;;;;2065742;28;20044;-86
2021/05/21 02:15:01;;;;;;;0.98;0.40;;;13.50;72.20;;;;;;2064622;28;20070;-85
2021/05/21 02:16:02;;;;;;;2.03;0.50;;;13.50;72.80;;;;;;2064231;28;20035;-85
2021/05/21 02:17:03;;;;;;;1.92;0.55;;;13.40;73.10;;;;;;2083573;28;20571;-86
2021/05/21 02:18:03;;;;;;;1.00;0.50;;;13.30;73.40;;;;;;2070678;28;20557;-85
2021/05/21 02:19:04;;;;;;;1.33;0.40;;;13.20;73.80;;;;;;2064811;28;20436;-86
2021/05/21 02:20:05;;;;;;;2.70;0.60;;;13.20;74.30;;;;;;2064018;28;20038;-86
2021/05/21 02:21:07;;;;;;;2.10;0.52;;;13.10;75.10;;;;;;2054104;28;20066;-85
2021/05/21 02:22:09;;;;;;;2.13;0.60;;;13.10;74.70;;;;;;2072585;28;20030;-85
2021/05/21 02:23:10;;;;;;;3.25;0.73;;;13.00;75.00;;;;;;2081061;28;20049;-84
2021/05/21 02:24:11;;;;;;;4.22;1.00;;;13.00;75.20;;;;;;2068162;28;20508;-84
2021/05/21 02:25:14;;;;;;;3.00;0.80;;;12.90;75.40;;;;;;2055894;28;20078;-85
2021/05/21 02:26:15;;;;;;;2.92;0.70;;;12.90;75.60;;;;;;2071204;28;20133;-85
2021/05/21 02:27:16;;;;;;;4.35;0.80;;;12.90;75.90;;;;;;2070599;28;20030;-85
2021/05/21 02:28:16;;;;;;;4.80;0.90;;;12.80;76.00;;;;;;2065316;28;20045;-84
2021/05/21 02:29:17;;;;;;;2.10;0.68;;;12.80;76.10;;;;;;2064637;28;20123;-85
2021/05/21 02:30:18;;;;;;;2.88;0.80;;;12.70;76.20;;;;;;2065398;28;20125;-84
2021/05/21 02:31:19;;;;;;;3.58;1.13;;;12.70;76.40;;;;;;2070649;28;20157;-84
2021/05/21 02:32:20;;;;;;;3.33;0.93;;;12.70;76.60;;;;;;2087385;28;20025;-84
2021/05/21 02:33:21;;;;;;;3.97;0.93;;;12.70;76.70;;;;;;2081376;28;20574;-85
2021/05/21 02:34:22;;;;;;;3.95;0.85;;;12.60;76.70;;;;;;2064098;28;20030;-84
2021/05/21 02:35:22;;;;;;;5.40;1.00;;;12.60;76.80;;;;;;2057420;28;20077;-85
2021/05/21 02:36:23;;;;;;;6.78;1.15;;;12.60;76.90;;;;;;2066034;28;20130;-84
2021/05/21 02:37:24;;;;;;;5.90;1.02;;;12.50;77.00;;;;;;2058182;28;20038;-84
2021/05/21 02:38:24;;;;;;;4.80;1.13;;;12.50;77.10;;;;;;2054179;28;20038;-85
2021/05/21 02:39:25;;;;;;;4.57;0.93;;;12.50;77.30;;;;;;2072374;28;20033;-84
2021/05/21 02:40:26;;;;;;;5.63;1.20;;;12.50;77.30;;;;;;2059055;28;20050;-85
2021/05/21 02:41:27;;;;;;;6.85;1.20;;;12.50;77.50;;;;;;2059830;28;20539;-84
2021/05/21 02:42:27;;;;;;;6.95;1.20;;;12.40;77.50;;;;;;2069874;28;20030;-84
2021/05/21 02:43:28;;;;;;;4.75;1.00;;;12.40;77.60;;;;;;2079601;28;20028;-84
2021/05/21 02:44:29;;;;;;;5.18;1.33;;;12.40;77.70;;;;;;2078671;28;20414;-84
2021/05/21 02:45:29;;;;;;;4.65;1.23;;;12.30;77.80;;;;;;2073888;28;20519;-84
2021/05/21 02:46:30;;;;;;;5.53;1.30;;;12.30;78.00;;;;;;2061323;28;20039;-83
2021/05/21 02:47:33;;;;;;;4.95;1.30;;;12.20;78.30;;;;;;2055164;28;20027;-84
2021/05/21 02:48:34;;;;;;;6.72;1.40;;;12.20;78.40;;;;;;2072540;28;20476;-84
2021/05/21 02:49:35;;;;;;;7.30;1.27;;;12.10;78.50;;;;;;2072727;28;20112;-84
2021/05/21 02:50:35;;;;;;;6.55;1.30;;;12.10;78.80;;;;;;2066561;28;20080;-84
2021/05/21 02:51:36;;;;;;;9.10;1.63;;;12.00;79.00;;;;;;2071794;28;20038;-84
2021/05/21 02:52:37;;;;;;;7.38;1.33;;;11.90;79.10;;;;;;2072578;28;20029;-84
2021/05/21 02:53:38;;;;;;;5.80;1.50;;;11.90;79.40;;;;;;2069162;28;20057;-84
2021/05/21 02:54:38;;;;;;;6.53;1.42;;;11.80;79.60;;;;;;2072639;28;20033;-83
2021/05/21 02:55:39;;;;;;;7.03;1.20;;;11.70;79.70;;;;;;2070562;28;22387;-84
2021/05/21 02:56:40;;;;;;;5.68;1.08;;;11.70;79.90;;;;;;2073271;28;21224;-84
2021/05/21 02:57:40;;;;;;;5.18;1.40;;;11.70;80.10;;;;;;2065067;28;20033;-84
2021/05/21 02:58:41;;;;;;;5.28;1.20;;;11.60;80.10;;;;;;2080428;28;20040;-84
2021/05/21 02:59:41;;;;;;;4.90;1.02;;;11.60;80.30;;;;;;2071669;28;20116;-86
2021/05/21 03:00:42;;;;;;;4.60;1.00;;;11.60;80.50;;;;;;2069009;28;20073;-85
2021/05/21 03:01:43;;;;;;;8.95;1.30;;;11.60;80.60;;;;;;2060353;28;20030;-85
2021/05/21 03:02:43;;;;;;;5.32;0.90;;;11.60;80.80;;;;;;2062471;28;20089;-86
2021/05/21 03:03:44;;;;;;;4.32;0.90;;;11.50;80.90;;;;;;2073389;28;20401;-85
2021/05/21 03:04:45;;;;;;;7.35;1.27;;;11.50;81.00;;;;;;2073268;28;20080;-85
2021/05/21 03:05:45;;;;;;;5.68;1.08;;;11.50;81.10;;;;;;2071368;28;20033;-85
2021/05/21 03:06:46;;;;;;;5.65;1.10;;;11.50;81.20;;;;;;2064236;28;20547;-85
2021/05/21 03:07:54;;;;;;;4.60;1.10;;;11.50;81.30;;;;;;2056152;28;20027;-85
2021/05/21 03:08:54;;;;;;;5.30;1.23;;;11.50;81.40;;;;;;2064032;28;20026;-85
2021/05/21 03:09:55;;;;;;;5.38;1.17;;;11.50;82.10;;;;;;2076564;28;20485;-85
2021/05/21 03:10:56;;;;;;;5.18;1.20;;;11.50;81.60;;;;;;2069085;28;20022;-84
2021/05/21 03:11:56;;;;;;;6.88;1.10;;;11.40;81.60;;;;;;2064884;28;20073;-84
2021/05/21 03:12:57;;;;;;;6.43;1.00;;;11.40;81.70;;;;;;2064457;28;20032;-84
2021/05/21 03:13:58;;;;;;;7.32;1.23;;;11.40;81.80;;;;;;2068093;28;20518;-84
2021/05/21 03:14:58;;;;;;;6.45;1.20;;;11.40;82.00;;;;;;2048736;28;20176;-84
2021/05/21 03:15:59;;;;;;;5.13;0.98;;;11.30;82.10;;;;;;2052709;28;20118;-84
2021/05/21 03:17:00;;;;;;;5.93;1.05;;;11.30;82.10;;;;;;2056895;28;20027;-84
2021/05/21 03:18:04;;;;;;;5.50;1.10;;;11.30;82.20;;;;;;2070176;28;20029;-84
2021/05/21 03:19:04;;;;;;;5.93;1.02;;;11.30;82.40;;;;;;2071166;28;20538;-85
2021/05/21 03:20:06;;;;;;;7.55;1.23;;;11.20;82.40;;;;;;2074961;28;20555;-85
2021/05/21 03:21:06;;;;;;;7.15;1.35;;;11.20;82.50;;;;;;2071841;28;20119;-85
2021/05/21 03:22:07;;;;;;;6.55;1.05;;;11.20;82.60;;;;;;2072443;28;20021;-85
2021/05/21 03:23:08;;;;;;;6.35;1.30;;;11.20;82.70;;;;;;2061609;28;20030;-83
2021/05/21 03:24:10;;;;;;;3.60;0.82;;;11.20;82.80;;;;;;2064789;28;20029;-83
2021/05/21 03:25:11;;;;;;;5.50;1.08;;;11.20;82.90;;;;;;2072803;28;20072;-84
2021/05/21 03:26:12;;;;;;;6.35;1.20;;;11.20;82.90;;;;;;2070204;28;20025;-84
2021/05/21 03:27:12;;;;;;;6.75;1.02;;;11.10;83.00;;;;;;2062358;28;21695;-84
2021/05/21 03:28:15;;;;;;;5.28;1.10;;;11.10;83.00;;;;;;2061676;28;20504;-84
2021/05/21 03:29:15;;;;;;;7.75;1.02;;;11.10;83.00;;;;;;2063192;28;20709;-84
2021/05/21 03:30:16;;;;;;;5.05;1.00;;;11.10;83.10;;;;;;2066591;28;20026;-84
2021/05/21 03:31:17;;;;;;;6.70;1.48;;;11.10;83.10;;;;;;2071089;28;20033;-85
2021/05/21 03:32:18;;;;;;;4.90;1.08;;;11.10;83.50;;;;;;2072795;28;20022;-85
2021/05/21 03:33:19;;;;;;;6.65;1.20;;;11.00;83.20;;;;;;2063427;28;20034;-85
2021/05/21 03:34:19;;;;;;;4.75;1.08;;;11.10;83.30;;;;;;2059722;28;20157;-85
2021/05/21 03:35:20;;;;;;;6.20;0.98;;;11.00;83.40;;;;;;2062670;28;20033;-85
2021/05/21 03:36:21;;;;;;;7.28;1.38;;;11.00;83.40;;;;;;2086086;28;20068;-85
2021/05/21 03:37:21;;;;;;;5.07;1.17;;;11.00;83.50;;;;;;2080010;28;20022;-85
2021/05/21 03:38:24;;;;;;;7.25;1.17;;;11.00;83.50;;;;;;2078574;28;20018;-85
2021/05/21 03:39:24;;;;;;;6.20;1.38;;;11.00;83.50;;;;;;2071712;28;20096;-85
2021/05/21 03:40:25;;;;;;;5.38;0.98;;;11.10;83.60;;;;;;2061824;28;20034;-86
2021/05/21 03:41:26;;;;;;;6.65;1.02;;;11.00;83.50;;;;;;2068464;28;20407;-85
2021/05/21 03:42:27;;;;;;;4.85;1.15;;;11.00;83.60;;;;;;2078643;28;20025;-84
2021/05/21 03:43:28;;;;;;;5.60;1.20;;;11.00;83.60;;;;;;2064990;28;20022;-84
2021/05/21 03:44:28;;;;;;;4.88;1.10;;;11.10;83.70;;;;;;2071399;28;20084;-85
2021/05/21 03:45:29;;;;;;;7.47;1.13;;;11.00;83.70;;;;;;2062541;28;20474;-85
2021/05/21 03:46:30;;;;;;;3.45;0.98;;;11.00;83.70;;;;;;2060236;28;20041;-84
2021/05/21 03:47:33;;;;;;;6.30;1.25;;;11.00;83.70;;;;;;2060987;28;20139;-83
2021/05/21 03:48:34;;;;;;;4.18;0.98;;;11.00;83.70;;;;;;2070811;28;20026;-84
2021/05/21 03:49:34;;;;;;;5.32;1.10;;;11.00;84.10;;;;;;2068904;28;20412;-84
2021/05/21 03:50:35;;;;;;;2.83;0.80;;;11.00;83.90;;;;;;2067706;28;20041;-85
2021/05/21 03:51:36;;;;;;;4.20;1.00;;;11.00;83.90;;;;;;2066734;28;20034;-84
2021/05/21 03:52:36;;;;;;;6.00;1.15;;;11.10;84.00;;;;;;2060674;28;20026;-84
2021/05/21 03:53:37;;;;;;;2.97;0.80;;;11.00;84.10;;;;;;2059581;28;20089;-85
2021/05/21 03:54:38;;;;;;;5.38;1.10;;;11.00;84.10;;;;;;2066164;28;20034;-85
2021/05/21 03:55:38;;;;;;;4.85;1.00;;;11.00;84.10;;;;;;2061116;28;20034;-85
2021/05/21 03:56:39;;;;;;;5.88;0.90;;;11.00;84.20;;;;;;2063830;28;20141;-85
2021/05/21 03:57:40;;;;;;;7.22;1.40;;;11.00;84.20;;;;;;2063838;28;20034;-85
2021/05/21 03:58:41;;;;;;;6.85;1.27;;;11.10;84.30;;;;;;2066434;28;20085;-86
2021/05/21 03:59:42;;;;;;;5.78;0.93;;;11.00;84.20;;;;;;2064278;28;20042;-85
2021/05/21 04:00:42;;;;;;;5.82;1.20;;;11.00;84.30;;;;;;2073062;28;20026;-85
2021/05/21 04:01:45;;;;;;;5.35;0.88;;;11.00;84.30;;;;;;2070618;28;20042;-85
2021/05/21 04:02:49;;;;;;;6.80;0.95;;;11.00;84.30;;;;;;2066311;28;20476;-85
2021/05/21 04:03:50;;;;;;;6.43;0.95;;;11.00;84.40;;;;;;2070222;28;20034;-85
2021/05/21 04:04:51;;;;;;;5.32;1.00;;;11.00;84.40;;;;;;2060695;28;20122;-85
2021/05/21 04:05:52;;;;;;;5.68;1.25;;;10.90;84.40;;;;;;2059056;28;20198;-85
2021/05/21 04:06:53;;;;;;;6.47;1.10;;;10.90;84.40;;;;;;2057791;28;20524;-84
2021/05/21 04:07:53;;;;;;;4.22;0.93;;;10.90;84.40;;;;;;2066066;28;20453;-84
2021/05/21 04:08:54;;;;;;;4.15;0.98;;;10.90;84.40;;;;;;2058950;28;20034;-84
2021/05/21 04:09:55;;;;;;;4.38;1.00;;;10.90;84.40;;;;;;2048333;28;20126;-83
2021/05/21 04:10:56;;;;;;;5.63;1.35;;;10.90;84.40;;;;;;2062880;28;20142;-85
2021/05/21 04:11:56;;;;;;;5.32;1.42;;;10.90;84.40;;;;;;2070579;28;20582;-84
2021/05/21 04:12:57;;;;;;;5.40;1.00;;;10.90;84.40;;;;;;2068680;28;20569;-84
2021/05/21 04:13:58;;;;;;;6.10;1.13;;;10.90;84.30;;;;;;2068650;28;20496;-84
2021/05/21 04:14:58;;;;;;;5.50;0.85;;;10.90;84.30;;;;;;2076957;28;20021;-85
2021/05/21 04:15:59;;;;;;;4.18;1.00;;;10.90;84.30;;;;;;2070197;28;20049;-85
2021/05/21 04:17:00;;;;;;;4.80;1.00;;;11.00;84.30;;;;;;2074009;28;20539;-85
2021/05/21 04:18:01;;;;;;;5.82;0.90;;;11.00;84.30;;;;;;2058045;28;20050;-85
2021/05/21 04:19:02;;;;;;;5.72;1.27;;;11.00;84.30;;;;;;2066455;28;20034;-84
2021/05/21 04:20:03;;;;;;;6.40;1.27;;;11.00;84.20;;;;;;2062923;28;20113;-84
2021/05/21 04:21:04;;;;;;;5.47;1.27;;;11.00;84.20;;;;;;2065614;28;20033;-84
2021/05/21 04:22:05;;;;;;;4.35;0.80;;;11.00;84.20;;;;;;2064304;28;20086;-84
2021/05/21 04:23:05;;;;;;;4.40;0.85;;;11.10;84.30;;;;;;2071352;28;20092;-84
2021/05/21 04:24:07;;;;;;;6.07;1.10;;;11.10;84.20;;;;;;2057650;28;20134;-85
2021/05/21 04:25:08;;;;;;;6.53;0.98;;;11.10;84.20;;;;;;2064072;28;20456;-85
2021/05/21 04:26:08;;;;;;;4.32;0.73;;;11.10;84.20;;;;;;2069038;28;20021;-85
2021/05/21 04:27:09;;;;;;;5.68;1.50;;;11.10;84.20;;;;;;2056097;28;20475;-85
2021/05/21 04:28:10;;;;;;;5.15;1.13;;;11.10;84.30;;;;;;2065205;28;20480;-84
2021/05/21 04:29:11;;;;;;;6.63;1.38;;;11.10;84.80;;;;;;2073423;28;20492;-85
2021/05/21 04:30:12;;;;;;;8.23;1.20;;;11.10;84.20;;;;;;2069302;28;20125;-85
2021/05/21 04:31:13;;;;;;;5.03;1.42;;;11.10;84.20;;;;;;2055124;28;20027;-85
2021/05/21 04:32:14;;;;;;;6.38;1.17;;;11.20;84.20;;;;;;2056910;28;20058;-85
2021/05/21 04:33:14;;;;;;;4.25;1.10;;;11.20;84.10;;;;;;2064928;28;20031;-85
2021/05/21 04:34:15;;;;;;;5.82;1.40;;;11.20;84.10;;;;;;2065745;28;20030;-84
2021/05/21 04:35:16;;;;;;;5.60;1.10;;;11.20;84.00;;;;;;2063366;28;20165;-84
2021/05/21 04:36:17;;;;;;;3.17;0.93;;;11.20;84.00;;;;;;2055010;28;20505;-85
2021/05/21 04:37:18;;;;;;;4.85;1.20;;;11.20;84.00;;;;;;2080475;28;20037;-84
2021/05/21 04:38:18;;;;;;;4.97;1.00;;;11.20;83.90;;;;;;2083274;28;20049;-84
2021/05/21 04:39:19;;;;;;;6.50;1.30;;;11.20;83.90;;;;;;2074106;28;20068;-83
2021/05/21 04:40:20;;;;;;;6.90;1.50;;;11.30;83.90;;;;;;2074972;28;20046;-84
2021/05/21 04:41:20;;;;;;;5.78;1.35;;;11.30;83.80;;;;;;2073972;28;20041;-84
2021/05/21 04:42:21;;;;;;;5.25;1.15;;;11.30;83.80;;;;;;2074625;28;20026;-85
2021/05/21 04:43:26;;;;;;;5.65;1.10;;;11.30;83.80;;;;;;2073863;28;20503;-84
2021/05/21 04:44:27;;;;;;;5.25;1.15;;;11.30;83.70;;;;;;2078705;28;20033;-85
2021/05/21 04:45:27;;;;;;;5.50;1.33;;;11.30;83.70;;;;;;2064939;28;20046;-86
2021/05/21 04:46:28;;;;;;;5.97;1.33;;;11.30;83.70;;;;;;2064830;28;20031;-86
2021/05/21 04:47:29;;;;;;;8.57;1.45;;;11.30;83.60;;;;;;2067195;28;20504;-86
2021/05/21 04:48:29;;;;;;;6.95;1.33;;;11.30;83.60;;;;;;2063843;28;20030;-86
2021/05/21 04:49:33;;;;;;;5.47;1.10;;;11.30;83.50;;;;;;2061523;28;20061;-86
2021/05/21 04:50:34;;;;;;;6.35;1.17;;;11.30;83.50;;;;;;2062823;28;20026;-86
2021/05/21 04:51:34;;;;;;;7.05;1.38;;;11.30;83.40;;;;;;2070465;28;20045;-86
2021/05/21 04:52:35;;;;;;;5.60;1.10;;;11.40;83.50;;;;;;2064512;28;20505;-86
2021/05/21 04:53:37;;;;;;;5.07;1.00;;;11.40;83.40;;;;;;2064773;28;20022;-86
2021/05/21 04:54:39;;;;;;;6.50;1.30;;;11.40;83.40;;;;;;2081213;28;20053;-84
2021/05/21 04:55:41;;;;;;;5.72;1.10;;;11.40;83.40;;;;;;2079097;28;20021;-85
2021/05/21 04:56:42;;;;;;;6.43;1.10;;;11.40;83.40;;;;;;2080616;28;20021;-86
2021/05/21 04:57:49;;;;;;;5.63;1.27;;;11.40;83.40;;;;;;2072433;28;20669;-86
2021/05/21 04:58:49;;;;;;;6.65;1.40;;;11.40;83.40;;;;;;2069754;28;20033;-85
2021/05/21 04:59:50;;;;;;;6.45;0.90;;;11.40;83.50;;;;;;2061625;28;20432;-86
2021/05/21 05:00:51;;;;;;;5.53;1.08;;;11.40;83.40;;;;;;2062785;28;20030;-84
2021/05/21 05:01:52;;;;;;;3.97;1.10;;;11.40;83.40;;;;;;2075140;28;20042;-84
2021/05/21 05:02:52;;;;;;;4.38;1.10;;;11.40;83.40;;;;;;2065652;28;20038;-85
2021/05/21 05:03:53;;;;;;;6.93;1.13;;;11.50;83.50;;;;;;2070795;28;20054;-85
2021/05/21 05:04:54;;;;;;;6.30;1.20;;;11.50;83.40;;;;;;2068181;28;20547;-85
2021/05/21 05:05:54;;;;;;;5.75;1.25;;;11.50;83.40;;;;;;2076957;28;20053;-85
2021/05/21 05:06:55;;;;;;;3.92;0.85;;;11.50;83.40;;;;;;2070562;28;20530;-84
2021/05/21 05:07:56;;;;;;;4.72;1.25;;;11.50;83.40;;;;;;2063098;28;20030;-85
2021/05/21 05:08:56;;;;;;;7.43;1.10;;;11.60;83.40;;;;;;2067626;28;20391;-85
2021/05/21 05:09:57;;;;;;;11.35;1.50;;;11.60;83.20;;;;;;2062076;28;20633;-85
2021/05/21 05:10:57;;;;;;;5.20;1.20;;;11.70;83.10;;;;;;2063851;28;20080;-85
2021/05/21 05:11:59;;;;;;;6.45;1.70;;;11.60;82.80;;;;;;2070786;28;20026;-85
2021/05/21 05:13:00;;;;;;;6.07;1.67;;;11.70;82.80;;;;;;2062564;28;20035;-85
2021/05/21 05:14:00;;;;;;;8.73;1.48;;;11.70;82.70;;;;;;2055586;28;20022;-86
2021/05/21 05:15:01;;;;;;;6.13;1.20;;;11.60;82.60;;;;;;2056051;28;20604;-85
2021/05/21 05:16:02;;;;;;;6.60;1.55;;;11.70;82.70;;;;;;2063573;28;20022;-86
2021/05/21 05:17:02;;;;;;;6.95;1.30;;;11.60;82.60;;;;;;2072895;28;20419;-86
2021/05/21 05:18:04;;;;;;;4.32;1.20;;;11.60;82.60;;;;;;2066799;28;20116;-86
2021/05/21 05:19:05;;;;;;;8.38;1.42;;;11.60;82.60;;;;;;2064568;28;20109;-86